Terminal Aerodrome Forecast
Issued by NWS Sterling, VA

Current Version | Previous Version | Graphics & Text | Print | Product List | Glossary On
Versions: 1 2 3 4 5 6 7 8 9 10 11 12 13 14 15 16 17 18 19 20 21 22 23 24 25 26
638
FTUS41 KLWX 191731
TAFIAD
TAF
KIAD 191731Z 1918/2024 28009KT P6SM FEW035 SCT050
     FM192300 28007KT P6SM FEW050 FEW150
     FM201300 32011KT P6SM FEW250
     FM201500 32012KT P6SM FEW035
     FM201800 31011KT P6SM FEW250
     FM202300 33007KT P6SM SCT250=

USA.gov is the U.S. government's official web portal to all federal, state and local government web resources and services.